createdAt,value
2018-12-19T00:01:56.995Z,18.67
2018-12-19T00:04:26.447Z,20.03
2018-12-19T00:06:55.830Z,17.90
2018-12-19T00:09:25.569Z,20.17
2018-12-19T00:11:55.524Z,19.37
2018-12-19T00:14:24.635Z,19.90
2018-12-19T00:16:53.800Z,24.10
2018-12-19T00:19:22.977Z,21.03
2018-12-19T00:21:52.140Z,22.03
2018-12-19T00:24:21.207Z,22.97
2018-12-19T00:26:50.300Z,18.07
2018-12-19T00:29:19.341Z,21.50
2018-12-19T00:31:48.483Z,20.40
2018-12-19T00:34:18.025Z,21.00
2018-12-19T00:36:47.097Z,20.50
2018-12-19T00:39:16.209Z,25.73
2018-12-19T00:41:45.327Z,20.53
2018-12-19T00:44:14.455Z,20.83
2018-12-19T00:46:43.665Z,21.67
2018-12-19T00:49:12.808Z,21.23
2018-12-19T00:51:41.894Z,21.20
2018-12-19T00:54:11.035Z,22.83
2018-12-19T00:56:41.422Z,21.07
2018-12-19T00:59:10.507Z,20.43
2018-12-19T01:01:40.187Z,22.53
2018-12-19T01:04:09.834Z,22.63
2018-12-19T01:06:39.446Z,20.87
2018-12-19T01:09:08.507Z,20.00
2018-12-19T01:11:38.776Z,19.30
2018-12-19T01:14:08.634Z,24.37
2018-12-19T01:16:38.201Z,23.63
2018-12-19T01:19:07.292Z,23.63
2018-12-19T01:21:36.359Z,24.00
2018-12-19T01:24:05.535Z,22.37
2018-12-19T01:26:34.679Z,21.20
2018-12-19T01:29:04.298Z,21.90
2018-12-19T01:31:33.377Z,21.87
2018-12-19T01:34:02.607Z,24.93
2018-12-19T01:36:31.653Z,24.30
2018-12-19T01:39:01.363Z,22.10
2018-12-19T01:41:30.437Z,23.73
2018-12-19T01:44:00.120Z,26.13
2018-12-19T01:46:29.219Z,23.80
2018-12-19T01:48:58.295Z,24.07
2018-12-19T01:51:28.294Z,23.00
2018-12-19T01:53:57.368Z,27.37
2018-12-19T01:56:26.923Z,28.10
2018-12-19T01:58:56.145Z,28.13
2018-12-19T02:01:25.221Z,27.37
2018-12-19T02:03:54.330Z,23.83
2018-12-19T02:06:23.387Z,25.87
2018-12-19T02:08:52.684Z,21.10
2018-12-19T02:11:21.764Z,25.20
2018-12-19T02:13:50.795Z,23.53
2018-12-19T02:16:20.538Z,23.70
2018-12-19T02:18:49.616Z,24.97
2018-12-19T02:21:19.471Z,22.80
2018-12-19T02:23:50.493Z,23.33
2018-12-19T02:26:19.982Z,25.27
2018-12-19T02:28:51.120Z,22.70
2018-12-19T02:31:20.191Z,21.47
2018-12-19T02:33:49.226Z,22.13
2018-12-19T02:36:18.578Z,26.67
2018-12-19T02:38:47.719Z,22.77
2018-12-19T02:41:19.129Z,22.97
2018-12-19T02:43:50.396Z,23.40
2018-12-19T02:46:22.304Z,27.27
2018-12-19T02:48:53.519Z,25.97
2018-12-19T02:51:24.558Z,25.17
2018-12-19T02:53:55.171Z,24.40
2018-12-19T02:56:24.572Z,25.80
2018-12-19T02:58:53.659Z,24.93
2018-12-19T03:01:23.409Z,23.13
2018-12-19T03:03:52.516Z,26.27
2018-12-19T03:06:21.688Z,25.97
2018-12-19T03:08:50.794Z,29.57
2018-12-19T03:11:19.878Z,26.50
2018-12-19T03:13:53.077Z,26.13
2018-12-19T03:16:22.513Z,28.23
2018-12-19T03:18:52.436Z,28.90
2018-12-19T03:21:21.917Z,23.57
2018-12-19T03:23:51.005Z,25.77
2018-12-19T03:26:20.048Z,25.80
2018-12-19T03:28:49.169Z,24.97
2018-12-19T03:31:18.384Z,26.33
2018-12-19T03:33:48.553Z,24.90
2018-12-19T03:36:18.268Z,25.17
2018-12-19T03:38:48.015Z,26.70
2018-12-19T03:41:17.151Z,28.37
2018-12-19T03:43:46.262Z,22.73
2018-12-19T03:46:15.915Z,24.33
2018-12-19T03:48:50.433Z,26.17
2018-12-19T03:51:19.536Z,28.53
2018-12-19T03:53:48.633Z,30.53
2018-12-19T03:56:17.738Z,27.80
2018-12-19T03:58:46.900Z,27.23
2018-12-19T04:01:15.925Z,30.33
2018-12-19T04:03:45.050Z,30.23
2018-12-19T04:06:14.160Z,29.67
2018-12-19T04:08:43.341Z,29.47
2018-12-19T04:11:12.380Z,27.23
2018-12-19T04:13:41.868Z,27.93
2018-12-19T04:16:10.900Z,26.57
2018-12-19T04:18:40.593Z,29.77
2018-12-19T04:21:09.787Z,30.40
2018-12-19T04:23:39.120Z,25.10
2018-12-19T04:26:08.686Z,25.93
2018-12-19T04:28:37.823Z,27.57
2018-12-19T04:31:07.101Z,25.53
2018-12-19T04:33:36.157Z,28.47
2018-12-19T04:36:05.669Z,30.27
2018-12-19T04:38:35.008Z,27.57
2018-12-19T04:41:04.773Z,32.10
2018-12-19T04:43:33.938Z,27.63
2018-12-19T04:46:02.986Z,30.70
2018-12-19T04:48:32.065Z,26.77
2018-12-19T04:51:01.210Z,28.03
2018-12-19T04:53:30.244Z,29.83
2018-12-19T04:55:59.368Z,31.00
2018-12-19T04:58:28.531Z,32.27
2018-12-19T05:00:57.745Z,28.00
2018-12-19T05:03:26.850Z,30.40
2018-12-19T05:05:55.964Z,29.70
2018-12-19T05:08:25.072Z,31.27
2018-12-19T05:10:54.129Z,28.17
2018-12-19T05:13:23.259Z,27.30
2018-12-19T05:15:52.321Z,29.37
2018-12-19T05:18:21.444Z,28.70
2018-12-19T05:20:50.450Z,28.13
2018-12-19T05:23:19.477Z,29.90
2018-12-19T05:25:48.553Z,29.00
2018-12-19T05:28:17.708Z,32.70
2018-12-19T05:30:46.729Z,30.37
2018-12-19T05:33:15.784Z,28.97
2018-12-19T05:35:44.939Z,29.83
2018-12-19T05:38:14.137Z,30.00
2018-12-19T05:40:43.215Z,31.13
2018-12-19T05:43:12.267Z,27.20
2018-12-19T05:45:41.374Z,31.37
2018-12-19T05:48:10.432Z,29.10
2018-12-19T05:50:39.638Z,29.90
2018-12-19T05:53:08.726Z,30.03
2018-12-19T05:55:38.428Z,30.97
2018-12-19T05:58:08.409Z,32.43
2018-12-19T06:00:37.471Z,34.27
2018-12-19T06:03:07.649Z,30.27
2018-12-19T06:05:36.670Z,31.73
2018-12-19T06:08:05.780Z,31.87
2018-12-19T06:10:34.872Z,30.93
2018-12-19T06:13:03.952Z,33.37
2018-12-19T06:15:33.100Z,37.37
2018-12-19T06:18:02.187Z,34.53
2018-12-19T06:20:32.002Z,31.33
2018-12-19T06:23:01.091Z,36.13
2018-12-19T06:25:30.127Z,31.77
2018-12-19T06:27:59.219Z,36.23
2018-12-19T06:30:29.071Z,32.80
2018-12-19T06:32:58.126Z,34.60
2018-12-19T06:35:27.324Z,33.23
2018-12-19T06:37:56.481Z,35.97
2018-12-19T06:40:25.603Z,32.50
2018-12-19T06:42:55.317Z,37.60
2018-12-19T06:45:24.365Z,39.93
2018-12-19T06:47:53.572Z,35.97
2018-12-19T06:50:22.672Z,36.33
2018-12-19T06:52:51.730Z,35.33
2018-12-19T06:55:20.955Z,33.70
2018-12-19T06:57:49.963Z,38.00
2018-12-19T07:00:19.099Z,36.70
2018-12-19T07:02:48.145Z,36.50
2018-12-19T07:05:17.185Z,35.70
2018-12-19T07:07:46.495Z,39.27
2018-12-19T07:10:15.561Z,34.93
2018-12-19T07:12:44.632Z,34.43
2018-12-19T07:15:13.961Z,34.57
2018-12-19T07:17:44.256Z,37.37
2018-12-19T07:20:13.308Z,39.03
2018-12-19T07:22:42.374Z,34.93
2018-12-19T07:25:12.093Z,35.47
2018-12-19T07:27:41.142Z,36.70
2018-12-19T07:30:10.425Z,35.53
2018-12-19T07:32:40.654Z,34.03
2018-12-19T07:35:10.216Z,34.03
2018-12-19T07:37:39.338Z,38.93
2018-12-19T07:40:08.399Z,37.40
2018-12-19T07:42:37.555Z,33.87
2018-12-19T07:45:06.680Z,37.17
2018-12-19T07:47:35.791Z,35.43
2018-12-19T07:50:05.588Z,35.63
2018-12-19T07:52:34.682Z,35.60
2018-12-19T07:55:03.953Z,43.60
2018-12-19T07:57:33.102Z,39.47
2018-12-19T08:00:03.020Z,38.73
2018-12-19T08:02:32.153Z,38.70
2018-12-19T08:05:01.259Z,37.27
2018-12-19T08:07:30.564Z,34.13
2018-12-19T08:09:59.674Z,38.87
2018-12-19T08:12:28.851Z,35.40
2018-12-19T08:15:02.633Z,34.67
2018-12-19T08:17:31.684Z,34.97
2018-12-19T08:20:00.797Z,35.93
2018-12-19T08:22:30.399Z,37.00
2018-12-19T08:24:59.452Z,38.30
2018-12-19T08:27:28.557Z,35.33
2018-12-19T08:29:57.598Z,43.17
2018-12-19T08:32:27.413Z,36.57
2018-12-19T08:34:56.574Z,37.47
2018-12-19T08:37:25.708Z,35.83
2018-12-19T08:39:54.766Z,37.67
2018-12-19T08:42:23.763Z,37.60
2018-12-19T08:44:52.910Z,36.67
2018-12-19T08:47:22.090Z,41.60
2018-12-19T08:49:51.162Z,36.13
2018-12-19T08:52:20.211Z,42.13
2018-12-19T08:54:49.250Z,33.47
2018-12-19T08:57:18.658Z,39.40
2018-12-19T08:59:47.771Z,38.77
2018-12-19T09:02:16.872Z,36.80
2018-12-19T09:04:45.950Z,39.30
2018-12-19T09:07:14.989Z,37.60
2018-12-19T09:09:44.015Z,36.67
2018-12-19T09:12:13.409Z,34.83
2018-12-19T09:14:42.437Z,36.97
2018-12-19T09:17:13.136Z,36.07
2018-12-19T09:19:42.551Z,36.90
2018-12-19T09:22:12.301Z,37.97
2018-12-19T09:24:41.344Z,38.87
2018-12-19T09:27:10.416Z,39.93
2018-12-19T09:29:40.740Z,38.20
2018-12-19T09:32:09.896Z,40.60
2018-12-19T09:34:39.068Z,39.23
2018-12-19T09:37:08.380Z,35.73
2018-12-19T09:39:38.049Z,38.73
2018-12-19T09:42:07.113Z,43.40
2018-12-19T09:44:36.382Z,43.10
2018-12-19T09:47:05.828Z,41.60
2018-12-19T09:49:34.869Z,41.97
2018-12-19T09:52:04.051Z,39.80
2018-12-19T09:54:34.400Z,41.10
2018-12-19T09:57:03.456Z,36.90
2018-12-19T09:59:32.690Z,39.90
2018-12-19T10:02:02.095Z,43.30
2018-12-19T10:04:31.227Z,37.03
2018-12-19T10:07:00.293Z,40.57
2018-12-19T10:09:29.365Z,42.50
2018-12-19T10:11:58.445Z,39.90
2018-12-19T10:14:27.530Z,41.27
2018-12-19T10:18:25.875Z,36.17
2018-12-19T10:20:55.161Z,37.67
2018-12-19T10:23:24.229Z,36.50
2018-12-19T10:25:58.701Z,40.57
2018-12-19T10:28:34.384Z,39.00
2018-12-19T10:31:03.548Z,36.93
2018-12-19T10:33:32.745Z,35.20
2018-12-19T10:36:01.823Z,39.97
2018-12-19T10:38:31.519Z,35.43
2018-12-19T10:41:00.659Z,40.17
2018-12-19T10:43:29.788Z,44.33
2018-12-19T10:45:58.901Z,39.17
2018-12-19T10:48:27.967Z,35.23
2018-12-19T10:50:57.071Z,37.33
2018-12-19T10:53:26.894Z,38.97
2018-12-19T10:55:55.940Z,36.97
2018-12-19T10:58:25.719Z,41.70
2018-12-19T11:01:00.350Z,38.20
2018-12-19T11:03:29.354Z,35.70
2018-12-19T11:05:58.433Z,30.70
2018-12-19T11:08:27.561Z,37.73
2018-12-19T11:10:57.330Z,35.63
2018-12-19T11:13:26.628Z,37.57
2018-12-19T11:15:55.832Z,37.37
2018-12-19T11:18:24.961Z,34.73
2018-12-19T11:20:54.199Z,38.97
2018-12-19T11:23:23.949Z,34.77
2018-12-19T11:25:53.144Z,36.37
2018-12-19T11:28:22.373Z,38.90
2018-12-19T11:30:52.156Z,38.17
2018-12-19T11:33:21.259Z,40.57
2018-12-19T11:35:50.382Z,36.67
2018-12-19T11:38:20.292Z,44.90
2018-12-19T11:40:49.369Z,41.30
2018-12-19T11:43:18.444Z,41.77
2018-12-19T11:45:47.490Z,37.87
2018-12-19T11:48:16.716Z,40.30
2018-12-19T11:50:45.751Z,42.83
2018-12-19T11:53:14.935Z,40.57
2018-12-19T11:55:44.316Z,40.97
2018-12-19T11:58:13.452Z,38.27
2018-12-19T12:00:42.545Z,38.23
2018-12-19T12:03:11.776Z,43.93
2018-12-19T12:05:40.899Z,44.67
2018-12-19T12:08:09.972Z,38.23
2018-12-19T12:10:40.045Z,38.93
2018-12-19T12:13:09.123Z,39.23
2018-12-19T12:15:38.608Z,38.23
2018-12-19T12:18:07.699Z,42.70
2018-12-19T12:20:36.683Z,41.70
2018-12-19T12:23:05.985Z,43.43
2018-12-19T12:25:35.388Z,37.80
2018-12-19T12:28:04.453Z,40.17
2018-12-19T12:30:34.441Z,42.73
2018-12-19T12:33:03.472Z,38.83
2018-12-19T12:35:32.740Z,41.00
2018-12-19T12:38:01.809Z,41.30
2018-12-19T12:40:30.965Z,43.07
2018-12-19T12:43:00.161Z,42.03
2018-12-19T12:45:29.227Z,44.90
2018-12-19T12:47:58.342Z,44.70
2018-12-19T12:50:27.504Z,40.00
2018-12-19T12:52:56.584Z,41.13
2018-12-19T12:55:25.733Z,46.60
2018-12-19T12:57:54.797Z,45.00
2018-12-19T13:00:23.850Z,40.67
2018-12-19T13:02:53.634Z,42.93
2018-12-19T13:05:24.408Z,46.33
2018-12-19T13:07:53.823Z,43.73
2018-12-19T13:10:22.924Z,45.00
2018-12-19T13:12:52.031Z,44.83
2018-12-19T13:15:26.416Z,43.50
2018-12-19T13:17:56.447Z,42.37
2018-12-19T13:20:27.695Z,44.10
2018-12-19T13:22:56.930Z,48.63
2018-12-19T13:25:26.504Z,44.33
2018-12-19T13:27:55.659Z,46.17
2018-12-19T13:30:24.822Z,45.00
2018-12-19T13:32:54.010Z,48.30
2018-12-19T13:35:23.530Z,48.10
2018-12-19T13:37:53.295Z,47.00
2018-12-19T13:40:22.466Z,45.77
2018-12-19T13:42:51.585Z,51.73
2018-12-19T13:45:21.272Z,44.87
2018-12-19T13:47:51.140Z,45.63
2018-12-19T13:50:20.785Z,46.57
2018-12-19T13:52:51.121Z,50.47
2018-12-19T13:55:20.463Z,52.47
2018-12-19T13:57:49.645Z,53.70
2018-12-19T14:00:20.857Z,50.70
2018-12-19T14:02:50.145Z,47.20
2018-12-19T14:05:19.434Z,51.97
2018-12-19T14:07:48.683Z,53.33
2018-12-19T14:10:17.865Z,51.07
2018-12-19T14:12:47.053Z,49.40
2018-12-19T14:15:16.113Z,51.20
2018-12-19T14:17:45.974Z,54.77
2018-12-19T14:20:15.365Z,50.57
2018-12-19T14:22:44.544Z,47.37
2018-12-19T14:25:13.671Z,46.23
2018-12-19T14:27:42.942Z,52.17
2018-12-19T14:30:12.075Z,48.63
2018-12-19T14:32:41.635Z,50.97
2018-12-19T14:35:11.448Z,52.67
2018-12-19T14:37:42.179Z,51.27
2018-12-19T14:40:11.400Z,48.90
2018-12-19T14:42:40.759Z,52.20
2018-12-19T14:45:10.696Z,51.23
2018-12-19T14:47:40.278Z,49.10
2018-12-19T14:50:10.284Z,48.37
2018-12-19T14:52:40.593Z,45.00
2018-12-19T14:55:10.593Z,50.40
2018-12-19T14:57:40.977Z,50.67
2018-12-19T15:00:11.124Z,49.43
2018-12-19T15:02:41.086Z,52.17
2018-12-19T15:05:11.083Z,50.67
2018-12-19T15:07:40.927Z,49.37
2018-12-19T15:10:10.827Z,47.73
2018-12-19T15:12:40.824Z,52.00
2018-12-19T15:15:10.125Z,53.27
2018-12-19T15:17:39.472Z,53.97
2018-12-19T15:20:08.908Z,49.63
2018-12-19T15:22:38.627Z,50.33
2018-12-19T15:25:07.926Z,51.90
2018-12-19T15:27:37.344Z,51.37
2018-12-19T15:30:06.608Z,52.37
2018-12-19T15:32:38.537Z,50.93
2018-12-19T15:35:07.973Z,49.57
2018-12-19T15:37:37.119Z,46.07
2018-12-19T15:40:07.698Z,49.77
2018-12-19T15:42:37.412Z,51.33
2018-12-19T15:45:06.836Z,49.50
2018-12-19T15:47:36.049Z,48.63
2018-12-19T15:50:06.997Z,56.17
2018-12-19T15:52:36.223Z,48.33
2018-12-19T15:55:06.452Z,49.10
2018-12-19T15:57:35.583Z,49.17
2018-12-19T16:00:05.708Z,46.47
2018-12-19T16:02:34.917Z,50.90
2018-12-19T16:05:04.963Z,58.03
2018-12-19T16:07:34.647Z,80.13
2018-12-19T16:10:04.201Z,53.77
2018-12-19T16:12:39.042Z,47.43
2018-12-19T16:15:05.453Z,43.87
2018-12-19T16:17:34.597Z,44.67
2018-12-19T16:20:04.233Z,42.80
2018-12-19T16:22:33.332Z,47.30
2018-12-19T16:25:02.895Z,53.00
2018-12-19T16:27:32.016Z,42.83
2018-12-19T16:30:01.133Z,44.90
2018-12-19T16:32:30.847Z,44.97
2018-12-19T16:35:00.860Z,45.23
2018-12-19T16:37:30.182Z,50.63
2018-12-19T16:39:59.862Z,42.83
2018-12-19T16:42:29.865Z,38.23
2018-12-19T16:44:59.049Z,43.30
2018-12-19T16:47:28.190Z,42.70
2018-12-19T16:49:57.264Z,43.53
2018-12-19T16:52:26.639Z,43.23
2018-12-19T16:54:57.449Z,38.90
2018-12-19T16:57:27.020Z,42.97
2018-12-19T16:59:56.181Z,39.33
2018-12-19T17:02:26.731Z,37.37
2018-12-19T17:04:55.881Z,42.13
2018-12-19T17:07:26.483Z,45.43
2018-12-19T17:09:55.589Z,42.17
2018-12-19T17:12:26.056Z,42.10
2018-12-19T17:14:55.781Z,46.20
2018-12-19T17:17:25.140Z,51.20
2018-12-19T17:19:54.508Z,63.53
2018-12-19T17:22:24.771Z,52.27
2018-12-19T17:24:54.965Z,45.63
2018-12-19T17:27:24.546Z,45.87
2018-12-19T17:29:53.860Z,43.90
2018-12-19T17:32:24.200Z,44.03
2018-12-19T17:34:53.681Z,44.87
2018-12-19T17:37:22.735Z,48.47
2018-12-19T17:39:52.100Z,53.10
2018-12-19T17:42:22.070Z,50.10
2018-12-19T17:44:51.721Z,54.30
2018-12-19T17:47:22.123Z,53.93
2018-12-19T17:49:52.329Z,54.67
2018-12-19T17:52:22.315Z,51.80
2018-12-19T17:54:51.474Z,53.57
2018-12-19T17:57:20.617Z,55.13
2018-12-19T17:59:49.849Z,60.50
2018-12-19T18:02:19.312Z,55.37
2018-12-19T18:04:48.548Z,55.60
2018-12-19T18:07:17.645Z,53.73
2018-12-19T18:09:46.866Z,67.47
2018-12-19T18:12:16.073Z,62.83
2018-12-19T18:14:45.384Z,59.90
2018-12-19T18:17:14.468Z,58.70
2018-12-19T18:19:43.647Z,57.83
2018-12-19T18:22:13.158Z,62.87
2018-12-19T18:24:42.294Z,55.70
2018-12-19T18:27:11.500Z,69.40
2018-12-19T18:29:41.090Z,59.07
2018-12-19T18:32:10.277Z,56.83
2018-12-19T18:34:39.880Z,61.43
2018-12-19T18:37:08.985Z,64.37
2018-12-19T18:39:38.604Z,64.53
2018-12-19T18:42:07.908Z,76.70
2018-12-19T18:44:37.085Z,79.30
2018-12-19T18:47:06.861Z,79.80
2018-12-19T18:49:35.982Z,85.10
2018-12-19T18:52:05.092Z,209.57
2018-12-19T18:54:34.326Z,96.10
2018-12-19T18:57:03.483Z,74.90
2018-12-19T18:59:32.687Z,69.63
2018-12-19T19:02:01.991Z,91.37
2018-12-19T19:04:33.154Z,92.60
2018-12-19T19:07:03.986Z,86.13
2018-12-19T19:09:34.888Z,91.47
2018-12-19T19:12:06.351Z,75.80
2018-12-19T19:14:37.092Z,87.63
2018-12-19T19:17:07.410Z,69.67
2018-12-19T19:19:38.742Z,76.77
2018-12-19T19:22:09.474Z,106.47
2018-12-19T19:24:39.523Z,100.40
2018-12-19T19:27:08.792Z,92.10
2018-12-19T19:29:39.889Z,75.90
2018-12-19T19:32:09.930Z,81.47
2018-12-19T19:34:39.865Z,90.47
2018-12-19T19:37:09.903Z,89.20
2018-12-19T19:39:39.624Z,91.03
2018-12-19T19:42:09.516Z,87.57
2018-12-19T19:44:40.117Z,90.57
2018-12-19T19:47:10.273Z,117.27
2018-12-19T19:49:40.580Z,152.43
2018-12-19T19:52:10.949Z,99.90
2018-12-19T19:54:41.591Z,179.63
2018-12-19T19:57:11.345Z,126.77
2018-12-19T19:59:40.729Z,120.17
2018-12-19T20:02:10.986Z,153.00
2018-12-19T20:04:42.151Z,113.50
2018-12-19T20:07:12.096Z,102.67
2018-12-19T20:09:41.364Z,110.03
2018-12-19T20:12:10.860Z,158.93
2018-12-19T20:14:40.670Z,90.03
2018-12-19T20:17:09.833Z,191.53
2018-12-19T20:19:40.200Z,141.90
2018-12-19T20:22:09.992Z,151.63
2018-12-19T20:24:39.227Z,266.07
2018-12-19T20:27:10.018Z,200.00
2018-12-19T20:29:40.671Z,103.53
2018-12-19T20:32:11.206Z,123.33
2018-12-19T20:34:40.584Z,91.90
2018-12-19T20:37:10.223Z,96.73
2018-12-19T20:39:40.374Z,81.73
2018-12-19T20:42:09.433Z,146.40
2018-12-19T20:44:39.155Z,83.13
2018-12-19T20:47:08.525Z,129.03
2018-12-19T20:49:38.938Z,78.07
2018-12-19T20:52:09.125Z,108.00
2018-12-19T20:54:39.021Z,79.53
2018-12-19T20:57:08.649Z,68.80
2018-12-19T20:59:38.500Z,147.40
2018-12-19T21:02:08.421Z,107.87
2018-12-19T21:04:37.903Z,167.73
2018-12-19T21:07:07.447Z,102.30
2018-12-19T21:09:36.609Z,80.33
2018-12-19T21:12:06.652Z,114.03
2018-12-19T21:14:35.835Z,85.83
2018-12-19T21:17:11.250Z,163.07
2018-12-19T21:19:42.416Z,252.90
2018-12-19T21:22:11.653Z,178.53
2018-12-19T21:24:41.127Z,151.27
2018-12-19T21:27:10.360Z,199.70
2018-12-19T21:29:39.697Z,204.13
2018-12-19T21:32:08.819Z,306.10
2018-12-19T21:34:38.145Z,249.20
2018-12-19T21:37:07.734Z,407.60
2018-12-19T21:39:37.331Z,224.13
2018-12-19T21:42:06.476Z,268.60
2018-12-19T21:44:35.785Z,351.33
2018-12-19T21:47:04.936Z,474.20
2018-12-19T21:49:34.662Z,363.10
2018-12-19T21:52:04.312Z,276.27
2018-12-19T21:54:33.455Z,289.10
2018-12-19T21:57:03.014Z,558.73
2018-12-19T21:59:32.373Z,422.27
2018-12-19T22:02:01.488Z,379.40
2018-12-19T22:04:30.998Z,420.90
2018-12-19T22:07:00.375Z,200.90
2018-12-19T22:09:29.797Z,343.13
2018-12-19T22:11:59.007Z,202.13
2018-12-19T22:14:28.270Z,318.27
2018-12-19T22:17:04.197Z,140.43
2018-12-19T22:19:33.903Z,379.70
2018-12-19T22:22:03.112Z,153.17
2018-12-19T22:24:32.895Z,140.87
2018-12-19T22:27:01.990Z,98.23
2018-12-19T22:29:31.109Z,131.00
2018-12-19T22:32:00.386Z,118.13
2018-12-19T22:34:29.525Z,236.23
2018-12-19T22:36:59.259Z,210.20
2018-12-19T22:39:28.957Z,244.53
2018-12-19T22:41:58.796Z,266.20
2018-12-19T22:44:27.883Z,266.40
2018-12-19T22:46:57.133Z,159.77
2018-12-19T22:49:26.266Z,313.23
2018-12-19T22:51:55.312Z,118.07
2018-12-19T22:54:24.386Z,275.33
2018-12-19T22:56:53.403Z,154.77
2018-12-19T22:59:23.151Z,169.10
2018-12-19T23:01:57.645Z,100.77
2018-12-19T23:04:26.885Z,107.23
2018-12-19T23:06:56.125Z,115.57
2018-12-19T23:09:25.180Z,208.63
2018-12-19T23:11:54.230Z,158.57
2018-12-19T23:14:23.394Z,158.07
2018-12-19T23:16:52.752Z,126.10
2018-12-19T23:19:21.966Z,77.53
2018-12-19T23:21:51.174Z,110.73
2018-12-19T23:24:20.346Z,175.47
2018-12-19T23:26:50.664Z,241.67
2018-12-19T23:29:19.801Z,240.97
2018-12-19T23:31:48.995Z,463.83
2018-12-19T23:34:18.988Z,257.27
2018-12-19T23:36:48.096Z,246.00
2018-12-19T23:39:17.262Z,167.33
2018-12-19T23:41:46.424Z,311.73
2018-12-19T23:44:22.646Z,122.07
2018-12-19T23:46:51.002Z,209.00
2018-12-19T23:49:20.236Z,302.47
2018-12-19T23:51:49.758Z,360.83
2018-12-19T23:54:18.959Z,285.27
2018-12-19T23:56:48.715Z,145.80
2018-12-19T23:59:17.927Z,456.70
